CW4525 Weather Reports


Display with metric or nautical units.
time (UTC)temp
F
wind
direction
speed
MPH
gust
MPH
rain 1hr
in
rain 24hr
in
rain mn
in
humidity
%
barometer
mb
20230201124521 11 351 0.0 0.0 0.00 0.00 0.00 85 1022.3
20230201123026 12 351 0.0 0.0 0.00 0.00 0.00 84 1021.9
20230201121517 12 351 0.0 1.0 0.00 0.00 0.00 84 1021.9
20230201120031 12 355 0.0 2.0 0.00 0.00 0.00 83 1021.7
20230201114516 12 350 0.0 0.0 0.00 0.00 0.00 83 1021.2
20230201113013 12 350 0.0 5.0 0.00 0.00 0.00 83 1021.5
20230201111526 13 347 0.0 2.0 0.00 0.00 0.00 82 1021.6
20230201110010 13 347 0.0 2.0 0.00 0.00 0.00 81 1021.4
20230201104508 13 347 1.0 3.0 0.00 0.00 0.00 81 1021.3
20230201103009 13 350 2.0 6.0 0.00 0.00 0.00 80 1021.5
20230201101505 14 325 3.0 6.0 0.00 0.00 0.00 77 1021.6
20230201100007 14 5 3.0 6.0 0.00 0.00 0.00 73 1021.5
20230201094559 15 327 4.0 9.0 0.00 0.00 0.00 68 1021.3
20230201093100 15 351 3.0 6.0 0.00 0.00 0.00 57 1021.3
20230201091554 16 15 0.0 0.0 0.00 0.00 0.00 54 1021.3
20230201090054 16 20 1.0 5.0 0.00 0.00 0.00 55 1021.2
20230201084558 16 355 2.0 6.0 0.00 0.00 0.00 53 1021.3
20230201083050 16 333 3.0 7.0 0.00 0.00 0.00 53 1021.2
20230201081547 16 9 4.0 8.0 0.00 0.00 0.00 52 1021.2
20230201080046 16 345 2.0 6.0 0.00 0.00 0.00 50 1021.2
20230201074550 16 9 2.0 5.0 0.00 0.00 0.00 50 1021.2
20230201073043 16 338 4.0 7.0 0.00 0.00 0.00 49 1021.1
20230201071542 16 344 2.0 5.0 0.00 0.00 0.00 49 1020.9
20230201070046 16 335 1.0 6.0 0.00 0.00 0.00 48 1021.1
20230201064539 16 329 3.0 8.0 0.00 0.00 0.00 48 1020.8
20230201063042 16 320 7.0 12.0 0.00 0.00 0.00 49 1020.8
20230201061543 17 348 4.0 8.0 0.00 0.00 0.00 51 1020.7
20230201060039 17 342 6.0 11.0 0.00 0.00 0.00 51 1021.1
20230201054533 17 355 5.0 11.0 0.00 0.00 0.00 50 1021.1
20230201053031 17 339 5.0 9.0 0.00 0.00 0.00 50 1021.6
20230201051529 17 331 5.0 7.0 0.00 0.00 0.00 50 1021.6
20230201050031 17 338 4.0 9.0 0.00 0.00 0.00 51 1021.6
20230201044526 17 346 5.0 8.0 0.00 0.00 0.00 49 1021.7
20230201043031 17 5 2.0 7.0 0.00 0.00 0.00 51 1021.7
20230201041527 17 325 4.0 7.0 0.00 0.00 0.00 51 1022.0
20230201040023 17 331 3.0 6.0 0.00 0.00 0.00 52 1021.6
20230201034521 18 342 5.0 8.0 0.00 0.00 0.00 52 1021.8
20230201033020 18 5 2.0 6.0 0.00 0.00 0.00 51 1022.1
20230201031520 18 348 2.0 6.0 0.00 0.00 0.00 51 1022.1
20230201030019 18 346 4.0 6.0 0.00 0.00 0.00 51 1022.1
20230201024516 18 333 5.0 9.0 0.00 0.00 0.00 49 1022.2
20230201023014 18 346 2.0 9.0 0.00 0.00 0.00 49 1022.1
20230201021513 18 327 3.0 8.0 0.00 0.00 0.00 50 1021.9
20230201020017 18 345 3.0 11.0 0.00 0.00 0.00 50 1021.8
20230201014510 18 336 4.0 12.0 0.00 0.00 0.00 49 1021.5
20230201013014 19 326 5.0 10.0 0.00 0.00 0.00 51 1021.5
20230201011503 19 319 6.0 11.0 0.00 0.00 0.00 50 1021.4
20230201010002 19 355 6.0 13.0 0.00 0.00 0.00 51 1021.0
20230201004600 20 330 7.0 12.0 0.00 0.00 0.00 51 1021.0
20230201003058 20 22 6.0 11.0 0.00 0.00 0.00 53 1020.9
20230201001554 21 316 6.0 13.0 0.00 0.00 0.00 54 1020.8
20230201000106 21 316 5.0 11.0 0.00 0.00 0.00 54 1020.8
20230131234549 21 315 5.0 12.0 0.00 0.00 0.00 54 1020.6
20230131233049 21 5 5.0 9.0 0.00 0.00 0.00 55 1020.7
20230131231546 21 323 2.0 8.0 0.00 0.00 0.00 55 1020.5
20230131230045 22 348 5.0 8.0 0.00 0.00 0.00 55 1020.6
20230131224541 22 341 6.0 9.0 0.00 0.00 0.00 55 1020.3
20230131223039 22 342 4.0 10.0 0.00 0.00 0.00 56 1020.2
20230131221538 23 339 5.0 11.0 0.00 0.00 0.00 57 1020.1
20230131220037 24 333 6.0 12.0 0.00 0.00 0.00 57 1019.8
20230131214536 24 331 7.0 13.0 0.00 0.00 0.00 57 1019.8
20230131213036 24 304 6.0 12.0 0.00 0.00 0.00 57 1019.7
20230131211537 24 306 8.0 15.0 0.00 0.00 0.00 58 1019.5
20230131210023 25 296 8.0 15.0 0.00 0.00 0.00 58 1019.4
20230131204557 26 321 9.0 16.0 0.00 0.00 0.00 57 1019.2
20230131203028 26 333 7.0 14.0 0.00 0.00 0.00 58 1019.1
20230131201519 26 340 7.0 18.0 0.00 0.00 0.00 56 1019.1
20230131200017 27 347 8.0 16.0 0.00 0.00 0.00 55 1019.1
20230131194517 28 319 8.0 15.0 0.00 0.00 0.00 54 1019.0
20230131193021 29 355 6.0 14.0 0.00 0.00 0.00 53 1018.7
20230131191522 29 314 7.0 19.0 0.00 0.00 0.00 54 1018.5
20230131190013 28 355 11.0 19.0 0.00 0.00 0.00 56 1018.5
20230131184510 28 302 8.0 20.0 0.00 0.00 0.00 55 1018.2
20230131183011 28 322 9.0 18.0 0.00 0.00 0.00 57 1018.1
20230131181508 29 331 14.0 21.0 0.00 0.00 0.00 56 1017.9
20230131180007 29 302 8.0 16.0 0.00 0.00 0.00 58 1018.4
20230131174507 27 295 5.0 13.0 0.00 0.00 0.00 60 1018.5
20230131173006 28 319 7.0 15.0 0.00 0.00 0.00 60 1018.5
20230131171506 27 346 8.0 18.0 0.00 0.00 0.00 61 1018.4
20230131170004 28 9 12.0 19.0 0.00 0.00 0.00 60 1018.5
20230131164505 28 350 11.0 23.0 0.00 0.00 0.00 61 1018.7
20230131163106 28 313 9.0 21.0 0.00 0.00 0.00 59 1018.9
20230131161608 28 328 11.0 15.0 0.00 0.00 0.00 61 1019.0
20230131160102 28 333 14.0 24.0 0.00 0.00 0.00 63 1019.0
20230131154607 29 9 11.0 21.0 0.00 0.00 0.00 63 1018.9
20230131153056 30 272 9.0 24.0 0.00 0.00 0.00 57 1018.4
20230131151622 30 335 13.0 23.0 0.00 0.00 0.00 59 1018.4
20230131150053 31 349 11.0 23.0 0.00 0.00 0.00 61 1017.8
20230131144550 30 256 9.0 24.0 0.00 0.00 0.00 63 1017.7
20230131143047 30 285 6.0 15.0 0.00 0.00 0.00 66 1017.4
20230131141545 30 278 10.0 19.0 0.00 0.00 0.00 66 1017.2
20230131140043 30 265 9.0 15.0 0.00 0.00 0.00 70 1017.3
20230131134541 29 298 9.0 15.0 0.00 0.00 0.00 73 1017.3
20230131133047 29 302 8.0 16.0 0.00 0.00 0.00 76 1017.2
20230131131540 29 291 7.0 15.0 0.00 0.00 0.00 76 1017.1
20230131130034 29 281 5.0 12.0 0.00 0.00 0.00 77 1016.8